createdAt,value
2018-03-16T00:01:16.407Z,74.06
2018-03-16T00:03:43.978Z,74.28
2018-03-16T00:06:11.542Z,74.27
2018-03-16T00:08:39.119Z,74.51
2018-03-16T00:11:06.864Z,74.72
2018-03-16T00:13:34.581Z,75.19
2018-03-16T00:16:02.156Z,75.27
2018-03-16T00:18:29.709Z,75.47
2018-03-16T00:20:57.437Z,74.85
2018-03-16T00:23:25.157Z,74.68
2018-03-16T00:25:52.726Z,74.76
2018-03-16T00:28:20.290Z,74.84
2018-03-16T00:30:47.870Z,74.69
2018-03-16T00:33:15.426Z,74.47
2018-03-16T00:35:43.248Z,74.31
2018-03-16T00:38:10.810Z,74.34
2018-03-16T00:40:38.582Z,74.58
2018-03-16T00:43:06.149Z,73.90
2018-03-16T00:45:33.717Z,73.79
2018-03-16T00:48:01.296Z,73.75
2018-03-16T00:50:29.054Z,73.89
2018-03-16T00:52:56.696Z,75.36
2018-03-16T00:55:24.492Z,75.28
2018-03-16T00:57:52.078Z,75.48
2018-03-16T01:00:19.648Z,75.48
2018-03-16T01:02:47.335Z,75.34
2018-03-16T01:05:15.060Z,75.43
2018-03-16T01:07:42.670Z,75.28
2018-03-16T01:10:10.243Z,75.72
2018-03-16T01:12:37.813Z,76.17
2018-03-16T01:15:05.385Z,76.31
2018-03-16T01:17:32.942Z,76.24
2018-03-16T01:20:00.513Z,76.36
2018-03-16T01:22:28.076Z,76.52
2018-03-16T01:24:55.694Z,76.60
2018-03-16T01:27:23.264Z,76.79
2018-03-16T01:29:50.938Z,76.57
2018-03-16T01:32:18.536Z,76.26
2018-03-16T01:34:46.199Z,76.42
2018-03-16T01:37:13.992Z,76.47
2018-03-16T01:39:41.541Z,76.74
2018-03-16T01:42:09.115Z,75.93
2018-03-16T01:44:36.674Z,75.57
2018-03-16T01:47:04.254Z,75.23
2018-03-16T01:49:31.893Z,75.05
2018-03-16T01:51:59.450Z,75.35
2018-03-16T01:54:27.219Z,75.65
2018-03-16T01:56:54.775Z,75.97
2018-03-16T01:59:22.520Z,76.33
2018-03-16T02:01:50.242Z,77.00
2018-03-16T02:04:17.969Z,77.15
2018-03-16T02:06:45.712Z,77.43
2018-03-16T02:09:13.267Z,78.44
2018-03-16T02:11:40.838Z,78.61
2018-03-16T02:14:08.553Z,78.93
2018-03-16T02:16:36.161Z,78.56
2018-03-16T02:19:03.879Z,78.09
2018-03-16T02:21:31.454Z,77.79
2018-03-16T02:23:59.014Z,78.11
2018-03-16T02:26:26.757Z,78.40
2018-03-16T02:28:54.322Z,79.13
2018-03-16T02:31:21.895Z,80.01
2018-03-16T02:33:49.465Z,79.92
2018-03-16T02:36:17.192Z,79.01
2018-03-16T02:38:44.942Z,78.50
2018-03-16T02:41:12.527Z,78.20
2018-03-16T02:43:40.247Z,78.15
2018-03-16T02:46:07.826Z,78.24
2018-03-16T02:48:35.615Z,78.65
2018-03-16T02:51:03.435Z,79.08
2018-03-16T02:53:31.252Z,79.18
2018-03-16T02:55:59.069Z,78.99
2018-03-16T02:58:26.621Z,79.29
2018-03-16T03:00:54.294Z,79.46
2018-03-16T03:03:21.888Z,80.07
2018-03-16T03:05:49.642Z,79.61
2018-03-16T03:08:17.214Z,78.96
2018-03-16T03:10:44.780Z,79.05
2018-03-16T03:13:12.596Z,79.24
2018-03-16T03:15:40.237Z,78.92
2018-03-16T03:18:07.812Z,78.81
2018-03-16T03:20:35.553Z,78.62
2018-03-16T03:23:03.369Z,78.66
2018-03-16T03:25:30.940Z,78.51
2018-03-16T03:27:58.497Z,78.80
2018-03-16T03:30:26.223Z,78.72
2018-03-16T03:32:54.042Z,78.72
2018-03-16T03:35:21.598Z,78.70
2018-03-16T03:37:49.380Z,78.56
2018-03-16T03:40:16.946Z,78.54
2018-03-16T03:42:44.510Z,78.59
2018-03-16T03:45:12.233Z,79.30
2018-03-16T03:47:39.805Z,79.64
2018-03-16T03:50:07.362Z,79.88
2018-03-16T03:52:35.185Z,78.86
2018-03-16T03:55:02.742Z,78.65
2018-03-16T03:57:30.306Z,78.61
2018-03-16T03:59:57.890Z,78.63
2018-03-16T04:02:25.525Z,78.75
2018-03-16T04:04:53.374Z,79.05
2018-03-16T04:07:20.929Z,78.98
2018-03-16T04:09:48.496Z,78.66
2018-03-16T04:12:16.054Z,78.77
2018-03-16T04:14:43.622Z,78.96
2018-03-16T04:17:11.174Z,78.90
2018-03-16T04:19:38.766Z,78.99
2018-03-16T04:22:06.338Z,79.26
2018-03-16T04:24:34.118Z,79.30
2018-03-16T04:27:01.673Z,78.86
2018-03-16T04:29:29.283Z,78.69
2018-03-16T04:31:57.072Z,77.94
2018-03-16T04:34:24.991Z,77.92
2018-03-16T04:36:52.551Z,77.52
2018-03-16T04:39:20.327Z,77.93
2018-03-16T04:41:47.895Z,77.79
2018-03-16T04:44:15.666Z,77.62
2018-03-16T04:46:43.274Z,77.53
2018-03-16T04:49:10.838Z,77.47
2018-03-16T04:51:38.462Z,77.30
2018-03-16T04:54:06.208Z,77.01
2018-03-16T04:56:33.773Z,77.15
2018-03-16T04:59:01.346Z,77.01
2018-03-16T05:01:28.906Z,77.19
2018-03-16T05:03:56.707Z,77.21
2018-03-16T05:06:24.271Z,77.21
2018-03-16T05:08:51.924Z,77.08
2018-03-16T05:11:19.480Z,76.61
2018-03-16T05:13:47.100Z,76.59
2018-03-16T05:16:14.896Z,76.26
2018-03-16T05:18:42.474Z,76.13
2018-03-16T05:21:10.050Z,75.96
2018-03-16T05:23:37.610Z,75.62
2018-03-16T05:26:05.286Z,75.58
2018-03-16T05:28:32.842Z,75.25
2018-03-16T05:31:00.409Z,75.24
2018-03-16T05:33:27.987Z,74.84
2018-03-16T05:35:55.586Z,74.47
2018-03-16T05:38:23.251Z,74.07
2018-03-16T05:40:50.854Z,73.79
2018-03-16T05:43:18.423Z,73.59
2018-03-16T05:45:46.311Z,73.55
2018-03-16T05:48:14.130Z,73.30
2018-03-16T05:50:41.695Z,73.00
2018-03-16T05:53:09.315Z,72.87
2018-03-16T05:55:36.882Z,72.92
2018-03-16T05:58:04.479Z,72.60
2018-03-16T06:00:32.078Z,72.59
2018-03-16T06:02:59.638Z,72.55
2018-03-16T06:05:27.444Z,72.68
2018-03-16T06:07:55.064Z,72.53
2018-03-16T06:10:22.792Z,73.28
2018-03-16T06:12:50.350Z,72.22
2018-03-16T06:15:18.095Z,71.24
2018-03-16T06:17:45.812Z,70.56
2018-03-16T06:20:13.445Z,70.36
2018-03-16T06:22:41.060Z,69.83
2018-03-16T06:25:08.682Z,69.55
2018-03-16T06:27:36.257Z,68.64
2018-03-16T06:30:03.899Z,67.99
2018-03-16T06:32:31.477Z,67.78
2018-03-16T06:34:59.043Z,66.90
2018-03-16T06:37:26.889Z,66.22
2018-03-16T06:39:54.455Z,66.04
2018-03-16T06:42:22.201Z,65.23
2018-03-16T06:44:49.912Z,65.17
2018-03-16T06:47:17.763Z,65.33
2018-03-16T06:49:45.338Z,65.37
2018-03-16T06:52:13.071Z,63.35
2018-03-16T06:54:40.817Z,63.80
2018-03-16T06:57:08.402Z,63.34
2018-03-16T06:59:36.026Z,63.09
2018-03-16T07:02:03.865Z,63.16
2018-03-16T07:04:31.432Z,63.18
2018-03-16T07:07:00.011Z,63.73
2018-03-16T07:09:27.829Z,63.64
2018-03-16T07:11:55.438Z,63.67
2018-03-16T07:14:22.994Z,63.91
2018-03-16T07:16:50.675Z,63.66
2018-03-16T07:19:18.504Z,64.17
2018-03-16T07:21:46.151Z,64.87
2018-03-16T07:24:13.741Z,64.45
2018-03-16T07:26:41.313Z,64.99
2018-03-16T07:29:08.894Z,64.37
2018-03-16T07:31:36.458Z,64.67
2018-03-16T07:34:04.045Z,64.50
2018-03-16T07:36:31.606Z,63.93
2018-03-16T07:38:59.178Z,63.78
2018-03-16T07:41:26.962Z,64.33
2018-03-16T07:43:54.578Z,64.28
2018-03-16T07:46:22.308Z,63.94
2018-03-16T07:48:49.907Z,64.44
2018-03-16T07:51:17.717Z,63.36
2018-03-16T07:53:45.273Z,63.02
2018-03-16T07:56:13.079Z,62.81
2018-03-16T07:58:40.679Z,62.42
2018-03-16T08:01:08.417Z,61.14
2018-03-16T08:03:35.997Z,60.24
2018-03-16T08:06:03.844Z,60.31
2018-03-16T08:08:31.414Z,60.46
2018-03-16T08:10:58.978Z,60.17
2018-03-16T08:13:26.798Z,58.72
2018-03-16T08:15:54.407Z,59.02
2018-03-16T08:18:22.219Z,58.75
2018-03-16T08:20:49.814Z,58.56
2018-03-16T08:23:17.412Z,57.47
2018-03-16T08:25:45.005Z,56.47
2018-03-16T08:28:12.572Z,55.77
2018-03-16T08:30:40.378Z,56.29
2018-03-16T08:33:08.245Z,55.32
2018-03-16T08:35:35.813Z,56.00
2018-03-16T08:38:03.394Z,54.60
2018-03-16T08:40:30.978Z,53.66
2018-03-16T08:42:58.554Z,52.54
2018-03-16T08:45:26.148Z,50.95
2018-03-16T08:47:53.740Z,49.83
2018-03-16T08:50:21.326Z,48.63
2018-03-16T08:52:48.987Z,45.81
2018-03-16T08:55:16.553Z,44.25
2018-03-16T08:57:44.123Z,40.00
2018-03-16T09:00:11.729Z,38.74
2018-03-16T09:02:39.358Z,37.60
2018-03-16T09:05:06.954Z,37.12
2018-03-16T09:07:34.692Z,36.29
2018-03-16T09:10:02.412Z,36.35
2018-03-16T09:12:30.059Z,37.49
2018-03-16T09:14:57.749Z,35.43
2018-03-16T09:17:25.318Z,36.28
2018-03-16T09:19:53.085Z,35.73
2018-03-16T09:22:20.678Z,34.40
2018-03-16T09:24:48.255Z,33.46
2018-03-16T09:27:16.137Z,34.06
2018-03-16T09:29:43.749Z,34.33
2018-03-16T09:32:11.369Z,34.41
2018-03-16T09:34:38.930Z,33.56
2018-03-16T09:37:06.563Z,33.17
2018-03-16T09:39:34.327Z,32.24
2018-03-16T09:42:02.146Z,32.11
2018-03-16T09:44:29.726Z,31.71
2018-03-16T09:46:57.304Z,30.44
2018-03-16T09:49:25.102Z,30.74
2018-03-16T09:51:52.682Z,30.12
2018-03-16T09:54:20.327Z,28.92
2018-03-16T09:56:47.899Z,29.42
2018-03-16T09:59:15.469Z,28.01
2018-03-16T10:01:43.038Z,27.05
2018-03-16T10:04:10.618Z,27.84
2018-03-16T10:06:38.265Z,28.68
2018-03-16T10:09:05.882Z,27.42
2018-03-16T10:11:33.442Z,28.11
2018-03-16T10:14:01.010Z,29.62
2018-03-16T10:16:28.800Z,29.91
2018-03-16T10:18:56.591Z,27.64
2018-03-16T10:21:24.308Z,27.94
2018-03-16T10:23:52.147Z,28.45
2018-03-16T10:26:19.718Z,29.96
2018-03-16T10:28:47.279Z,29.22
2018-03-16T10:31:14.872Z,29.75
2018-03-16T10:33:42.430Z,29.60
2018-03-16T10:36:09.992Z,29.55
2018-03-16T10:38:37.545Z,30.05
2018-03-16T10:41:05.381Z,29.46
2018-03-16T10:43:32.938Z,29.53
2018-03-16T10:46:00.504Z,30.07
2018-03-16T10:48:28.101Z,29.39
2018-03-16T10:50:55.693Z,28.12
2018-03-16T10:53:23.467Z,27.89
2018-03-16T10:55:51.288Z,28.15
2018-03-16T10:58:19.002Z,27.80
2018-03-16T11:00:52.006Z,29.01
2018-03-16T11:03:19.738Z,28.95
2018-03-16T11:05:52.727Z,31.12
2018-03-16T11:08:25.848Z,32.24
2018-03-16T11:10:53.442Z,27.57
2018-03-16T11:13:21.006Z,26.56
2018-03-16T11:15:48.571Z,27.29
2018-03-16T11:18:16.303Z,26.66
2018-03-16T11:20:44.125Z,26.15
2018-03-16T11:23:11.841Z,28.05
2018-03-16T11:25:39.464Z,26.23
2018-03-16T11:28:07.050Z,26.44
2018-03-16T11:30:34.798Z,25.96
2018-03-16T11:33:02.614Z,26.30
2018-03-16T11:35:30.180Z,25.98
2018-03-16T11:37:57.770Z,27.04
2018-03-16T11:40:25.348Z,27.09
2018-03-16T11:42:52.977Z,26.85
2018-03-16T11:45:20.696Z,25.90
2018-03-16T11:47:48.253Z,26.51
2018-03-16T11:50:15.922Z,24.89
2018-03-16T11:52:43.494Z,25.66
2018-03-16T11:55:11.246Z,25.67
2018-03-16T11:57:38.962Z,24.87
2018-03-16T12:00:06.753Z,24.74
2018-03-16T12:02:34.530Z,24.65
2018-03-16T12:05:02.102Z,27.70
2018-03-16T12:07:29.885Z,27.00
2018-03-16T12:09:57.687Z,27.36
2018-03-16T12:12:25.346Z,27.52
2018-03-16T12:14:52.900Z,28.09
2018-03-16T12:17:20.530Z,25.10
2018-03-16T12:19:48.357Z,25.56
2018-03-16T12:22:16.484Z,25.63
2018-03-16T12:24:44.281Z,26.20
2018-03-16T12:27:12.014Z,26.44
2018-03-16T12:29:39.583Z,25.93
2018-03-16T12:32:07.351Z,27.18
2018-03-16T12:34:35.202Z,27.27
2018-03-16T12:37:03.006Z,27.48
2018-03-16T12:39:30.581Z,27.94
2018-03-16T12:41:58.202Z,27.45
2018-03-16T12:44:25.823Z,27.16
2018-03-16T12:46:53.413Z,28.81
2018-03-16T12:49:21.177Z,28.13
2018-03-16T12:51:48.755Z,29.37
2018-03-16T12:54:16.515Z,29.85
2018-03-16T12:56:44.126Z,32.34
2018-03-16T12:59:11.680Z,34.87
2018-03-16T13:01:39.359Z,36.87
2018-03-16T13:04:07.186Z,37.07
2018-03-16T13:06:34.751Z,38.25
2018-03-16T13:09:02.517Z,39.33
2018-03-16T13:11:30.213Z,39.75
2018-03-16T13:13:57.791Z,40.28
2018-03-16T13:16:25.584Z,40.12
2018-03-16T13:18:53.239Z,40.95
2018-03-16T13:21:20.806Z,41.00
2018-03-16T13:23:48.531Z,42.14
2018-03-16T13:26:16.119Z,42.33
2018-03-16T13:28:43.675Z,42.86
2018-03-16T13:31:11.298Z,43.40
2018-03-16T13:33:39.106Z,43.59
2018-03-16T13:36:06.922Z,43.88
2018-03-16T13:38:34.740Z,43.61
2018-03-16T13:41:02.388Z,43.24
2018-03-16T13:43:30.177Z,43.31
2018-03-16T13:45:57.752Z,43.67
2018-03-16T13:48:25.487Z,43.13
2018-03-16T13:50:53.046Z,43.72
2018-03-16T13:53:20.614Z,43.83
2018-03-16T13:55:48.367Z,43.83
2018-03-16T13:58:16.097Z,44.02
2018-03-16T14:00:43.672Z,43.87
2018-03-16T14:03:12.382Z,44.05
2018-03-16T14:05:39.950Z,44.75
2018-03-16T14:08:07.551Z,44.76
2018-03-16T14:10:35.238Z,44.42
2018-03-16T14:13:02.814Z,44.65
2018-03-16T14:15:30.615Z,43.74
2018-03-16T14:17:58.223Z,44.06
2018-03-16T14:20:25.794Z,43.87
2018-03-16T14:22:53.358Z,44.18
2018-03-16T14:25:21.066Z,43.64
2018-03-16T14:27:48.631Z,43.33
2018-03-16T14:30:16.457Z,43.14
2018-03-16T14:32:44.243Z,43.56
2018-03-16T14:35:12.059Z,43.17
2018-03-16T14:37:39.635Z,43.27
2018-03-16T14:40:07.289Z,42.86
2018-03-16T14:42:34.866Z,42.96
2018-03-16T14:45:02.427Z,42.89
2018-03-16T14:47:29.986Z,42.95
2018-03-16T14:49:57.559Z,43.66
2018-03-16T14:52:25.284Z,43.79
2018-03-16T14:54:53.106Z,43.97
2018-03-16T14:57:20.714Z,44.10
2018-03-16T14:59:48.539Z,44.59
2018-03-16T15:02:16.271Z,44.42
2018-03-16T15:04:44.076Z,45.13
2018-03-16T15:07:11.866Z,44.83
2018-03-16T15:09:39.583Z,44.76
2018-03-16T15:12:07.150Z,45.29
2018-03-16T15:14:34.735Z,45.22
2018-03-16T15:17:02.391Z,45.05
2018-03-16T15:19:29.967Z,44.98
2018-03-16T15:21:57.596Z,45.42
2018-03-16T15:24:25.159Z,45.47
2018-03-16T15:26:52.764Z,44.88
2018-03-16T15:29:20.448Z,45.21
2018-03-16T15:31:48.007Z,45.54
2018-03-16T15:34:15.582Z,45.44
2018-03-16T15:36:43.313Z,45.73
2018-03-16T15:39:10.878Z,45.43
2018-03-16T15:41:38.446Z,45.19
2018-03-16T15:44:06.082Z,45.65
2018-03-16T15:46:33.882Z,45.38
2018-03-16T15:49:01.476Z,45.51
2018-03-16T15:51:29.046Z,46.05
2018-03-16T15:53:56.602Z,45.51
2018-03-16T15:56:24.178Z,45.41
2018-03-16T15:58:51.744Z,45.57
2018-03-16T16:01:19.491Z,45.57
2018-03-16T16:03:47.075Z,45.02
2018-03-16T16:06:14.889Z,45.62
2018-03-16T16:08:42.441Z,45.56
2018-03-16T16:11:10.054Z,45.26
2018-03-16T16:13:37.632Z,45.39
2018-03-16T16:16:05.287Z,45.11
2018-03-16T16:18:33.015Z,45.61
2018-03-16T16:21:00.836Z,45.67
2018-03-16T16:23:28.447Z,45.02
2018-03-16T16:25:56.014Z,44.96
2018-03-16T16:28:23.590Z,45.73
2018-03-16T16:30:51.192Z,45.29
2018-03-16T16:33:18.752Z,45.19
2018-03-16T16:35:46.332Z,45.19
2018-03-16T16:38:13.899Z,45.18
2018-03-16T16:40:41.468Z,45.31
2018-03-16T16:43:09.026Z,45.82
2018-03-16T16:45:36.813Z,45.25
2018-03-16T16:48:04.391Z,45.61
2018-03-16T16:50:32.008Z,45.47
2018-03-16T16:52:59.576Z,46.36
2018-03-16T16:55:27.134Z,46.83
2018-03-16T16:57:54.717Z,46.89
2018-03-16T17:00:22.520Z,46.14
2018-03-16T17:02:50.086Z,46.14
2018-03-16T17:05:17.643Z,46.17
2018-03-16T17:07:45.215Z,45.92
2018-03-16T17:10:12.972Z,46.21
2018-03-16T17:12:40.687Z,46.33
2018-03-16T17:15:08.432Z,46.88
2018-03-16T17:17:36.056Z,46.40
2018-03-16T17:20:03.865Z,46.38
2018-03-16T17:22:31.436Z,46.61
2018-03-16T17:24:59.000Z,46.67
2018-03-16T17:27:26.740Z,46.41
2018-03-16T17:29:54.312Z,46.23
2018-03-16T17:32:24.334Z,46.71
2018-03-16T17:34:49.897Z,46.90
2018-03-16T17:37:18.351Z,46.70
2018-03-16T17:39:46.115Z,46.43
2018-03-16T17:42:13.931Z,46.63
2018-03-16T17:44:41.755Z,46.44
2018-03-16T17:47:09.322Z,46.82
2018-03-16T17:49:37.086Z,46.82
2018-03-16T17:52:04.774Z,47.42
2018-03-16T17:54:32.338Z,46.92
2018-03-16T17:57:00.142Z,46.92
2018-03-16T17:59:27.750Z,46.62
2018-03-16T18:01:55.308Z,46.85
2018-03-16T18:04:22.985Z,46.96
2018-03-16T18:06:50.562Z,46.72
2018-03-16T18:09:18.331Z,46.51
2018-03-16T18:11:45.933Z,47.04
2018-03-16T18:14:13.767Z,47.46
2018-03-16T18:16:41.322Z,47.28
2018-03-16T18:19:08.996Z,47.87
2018-03-16T18:21:36.721Z,47.71
2018-03-16T18:24:04.318Z,47.43
2018-03-16T18:26:31.902Z,47.65
2018-03-16T18:28:59.649Z,47.69
2018-03-16T18:31:27.237Z,47.72
2018-03-16T18:33:54.902Z,48.25
2018-03-16T18:36:22.471Z,48.11
2018-03-16T18:38:50.032Z,48.06
2018-03-16T18:41:17.835Z,48.22
2018-03-16T18:43:45.413Z,48.15
2018-03-16T18:46:13.201Z,48.35
2018-03-16T18:48:40.770Z,48.22
2018-03-16T18:51:08.455Z,48.48
2018-03-16T18:53:36.256Z,49.45
2018-03-16T18:56:04.074Z,48.53
2018-03-16T18:58:31.659Z,49.01
2018-03-16T19:00:59.238Z,48.83
2018-03-16T19:03:27.128Z,49.15
2018-03-16T19:05:54.865Z,49.24
2018-03-16T19:08:22.490Z,49.08
2018-03-16T19:10:50.284Z,49.00
2018-03-16T19:13:18.102Z,48.93
2018-03-16T19:15:45.921Z,49.50
2018-03-16T19:18:13.490Z,49.79
2018-03-16T19:20:41.246Z,50.06
2018-03-16T19:23:08.975Z,50.35
2018-03-16T19:25:36.595Z,49.87
2018-03-16T19:28:04.222Z,50.49
2018-03-16T19:30:31.795Z,49.88
2018-03-16T19:32:59.547Z,50.01
2018-03-16T19:35:27.813Z,50.08
2018-03-16T19:37:55.736Z,50.00
2018-03-16T19:40:23.505Z,50.21
2018-03-16T19:42:51.066Z,50.42
2018-03-16T19:45:18.626Z,50.05
2018-03-16T19:47:46.458Z,50.02
2018-03-16T19:50:14.023Z,50.24
2018-03-16T19:52:41.675Z,50.12
2018-03-16T19:55:09.382Z,49.83
2018-03-16T19:57:36.983Z,49.52
2018-03-16T20:00:04.760Z,49.63
2018-03-16T20:02:32.569Z,49.45
2018-03-16T20:05:00.387Z,49.59
2018-03-16T20:07:28.206Z,49.55
2018-03-16T20:09:56.842Z,49.88
2018-03-16T20:12:24.797Z,49.56
2018-03-16T20:14:52.351Z,49.88
2018-03-16T20:17:20.053Z,50.02
2018-03-16T20:19:47.611Z,50.77
2018-03-16T20:22:15.210Z,50.99
2018-03-16T20:24:42.764Z,50.49
2018-03-16T20:27:10.365Z,51.02
2018-03-16T20:29:37.938Z,50.98
2018-03-16T20:32:05.518Z,50.85
2018-03-16T20:34:33.198Z,51.02
2018-03-16T20:37:01.025Z,51.17
2018-03-16T20:39:28.843Z,51.29
2018-03-16T20:41:56.462Z,51.64
2018-03-16T20:44:24.281Z,51.56
2018-03-16T20:46:52.099Z,51.61
2018-03-16T20:49:19.666Z,51.68
2018-03-16T20:51:47.334Z,51.81
2018-03-16T20:54:15.153Z,52.15
2018-03-16T20:56:42.943Z,52.32
2018-03-16T20:59:10.510Z,52.70
2018-03-16T21:01:38.365Z,52.73
2018-03-16T21:04:05.976Z,52.87
2018-03-16T21:06:33.626Z,53.02
2018-03-16T21:09:01.194Z,53.07
2018-03-16T21:11:28.777Z,53.18
2018-03-16T21:13:56.600Z,53.30
2018-03-16T21:16:24.417Z,53.37
2018-03-16T21:18:51.976Z,53.47
2018-03-16T21:21:19.576Z,53.46
2018-03-16T21:23:47.291Z,53.42
2018-03-16T21:26:15.092Z,53.26
2018-03-16T21:28:42.907Z,53.31
2018-03-16T21:31:10.479Z,53.05
2018-03-16T21:33:38.055Z,53.30
2018-03-16T21:36:05.648Z,53.73
2018-03-16T21:38:33.479Z,53.46
2018-03-16T21:41:01.045Z,53.29
2018-03-16T21:43:28.708Z,53.29
2018-03-16T21:45:56.266Z,53.22
2018-03-16T21:48:23.826Z,53.24
2018-03-16T21:50:51.410Z,53.22
2018-03-16T21:53:19.187Z,53.35
2018-03-16T21:55:46.787Z,53.27
2018-03-16T21:58:14.523Z,53.51
2018-03-16T22:00:42.348Z,53.44
2018-03-16T22:03:09.918Z,53.49
2018-03-16T22:05:37.474Z,53.38
2018-03-16T22:08:05.123Z,53.17
2018-03-16T22:10:32.689Z,53.42
2018-03-16T22:13:00.291Z,53.31
2018-03-16T22:15:28.049Z,53.34
2018-03-16T22:17:55.606Z,53.31
2018-03-16T22:20:23.171Z,53.32
2018-03-16T22:22:50.744Z,53.47
2018-03-16T22:25:18.314Z,53.23
2018-03-16T22:27:46.028Z,53.47
2018-03-16T22:30:13.857Z,53.19
2018-03-16T22:32:41.418Z,53.46
2018-03-16T22:35:09.193Z,53.20
2018-03-16T22:37:36.759Z,53.19
2018-03-16T22:40:04.632Z,53.19
2018-03-16T22:42:32.202Z,53.01
2018-03-16T22:44:59.750Z,53.23
2018-03-16T22:47:27.585Z,53.18
2018-03-16T22:49:55.138Z,53.21
2018-03-16T22:52:22.698Z,52.90
2018-03-16T22:54:50.298Z,52.41
2018-03-16T22:57:17.900Z,52.57
2018-03-16T22:59:45.474Z,52.17
2018-03-16T23:02:13.077Z,52.71
2018-03-16T23:04:40.687Z,52.69
2018-03-16T23:07:08.258Z,52.98
2018-03-16T23:09:36.010Z,52.75
2018-03-16T23:12:03.763Z,52.63
2018-03-16T23:14:31.322Z,52.59
2018-03-16T23:16:58.902Z,52.85
2018-03-16T23:19:26.474Z,53.14
2018-03-16T23:21:54.110Z,53.16
2018-03-16T23:24:21.857Z,53.38
2018-03-16T23:26:49.671Z,53.15
2018-03-16T23:29:17.491Z,52.86
2018-03-16T23:31:45.308Z,53.28
2018-03-16T23:34:12.917Z,52.95
2018-03-16T23:36:40.536Z,52.65
2018-03-16T23:39:08.262Z,52.59
2018-03-16T23:41:35.949Z,52.58
2018-03-16T23:44:03.799Z,52.48
2018-03-16T23:46:31.364Z,52.70
2018-03-16T23:48:58.930Z,53.10
2018-03-16T23:51:26.498Z,52.94
2018-03-16T23:53:54.064Z,53.08
2018-03-16T23:56:21.888Z,53.04
2018-03-16T23:58:49.460Z,52.86
